• Join FlightAware (Why Join?)
  • Login
  • US Flag 
09:36AM EDT


 

Airport Tracker/Info


-or-


 

Live Flight TrackerFlight Track Log ✈ AWE3374 ✈ 20-Jul-2013 ✈ KPWM - KDCA

Flight Track Log - Related Links

Times and Time Zones

All times are in EDT time to prevent confusion due to time zone crossing. See the AWE3374 flight status page for this flight to view local times or setup timezone preferences in your user account.

Time Position Orientation Groundspeed Altitude Reporting Facility
EDT Latitude Longitude Course Direction KTS MPH feet Rate Location/Type
12:21PM 43.6517 -70.4086 232° Southwest 170 196 2,400  Level Boston Center
12:22PM 43.6194 -70.4869 240° Southwest 207 238 5,200 2,700 Climbing Boston Center
12:23PM 43.4741 -70.2449 229° Southwest  Level FlightAware Approximate
12:23PM 43.5642 -70.5375 214° Southwest 215 247 7,800  Level Boston Center
12:24PM 43.4168 -70.3497 235° Southwest  Level FlightAware Approximate
12:24PM 43.4981 -70.5825 206° Southwest 259 298 10,500  Level Boston Center
12:25PM 43.3501 -70.4433 226° Southwest  Level FlightAware Approximate
12:25PM 43.4258 -70.6133 197° South 290 334 11,900  Level Boston Center
12:26PM 43.2892 -70.5439 232° Southwest  Level FlightAware Approximate
12:26PM 43.3469 -70.6442 196° South 302 348 14,000  Level Boston Center
12:27PM 43.2517 -70.6842 197° South 314 361 16,100 1,920 Climbing Boston Center
12:28PM 43.1753 -70.7175 198° South 320 368 17,900 1,620 Climbing Boston Center
12:29PM 43.0967 -70.7681 205° Southwest 320 368 19,400 1,440 Climbing Boston Center
12:30PM 43.0122 -70.8272 207° Southwest 326 375 20,800 1,380 Climbing Boston Center
12:31PM 42.9297 -70.8889 209° Southwest 332 382 22,200 1,320 Climbing Boston Center
12:32PM 42.8450 -70.9478 207° Southwest 342 394 23,500 1,200 Climbing Boston Center
12:33PM 42.7539 -71.0064 205° Southwest 352 405 24,700 1,140 Climbing Boston Center
12:34PM 42.6736 -71.0847 216° Southwest 358 412 25,800 1,080 Climbing Boston Center
12:35PM 42.5933 -71.1681 217° Southwest 364 419 26,900 1,020 Climbing Boston Center
12:36PM 42.5089 -71.2517 216° Southwest 375 432 27,900 960 Climbing Boston Center
12:37PM 42.4200 -71.3375 215° Southwest 382 440 28,900 900 Climbing Boston Center
12:38PM 42.3353 -71.4233 217° Southwest 387 445 29,800 480 Climbing Boston Center
12:39PM 42.2239 -71.5317 216° Southwest 399 459 30,000 60 Climbing Boston Center
12:40PM 42.1328 -71.6142 214° Southwest 404 465 30,000  Level Boston Center
12:41PM 42.0417 -71.7019 216° Southwest 404 465 30,000  Level Boston Center
12:42PM 41.9506 -71.7897 216° Southwest 409 471 30,000  Level Boston Center
12:43PM 41.8592 -71.8769 215° Southwest 404 465 30,000  Level Boston Center
12:44PM 41.7700 -71.9669 217° Southwest 404 465 30,000  Level Boston Center
12:45PM 41.6767 -72.0508 214° Southwest 404 465 30,000  Level Boston Center
12:47PM 41.5603 -72.1656 216° Southwest 404 465 30,000  Level Boston Center
12:48PM 41.4769 -72.2406 214° Southwest 404 465 30,000  Level Boston Center
12:49PM 41.3875 -72.3239 215° Southwest 404 465 30,000  Level Boston Center
12:50PM 41.2958 -72.4097 215° Southwest 404 465 30,000  Level Boston Center
12:51PM 41.2019 -72.5008 216° Southwest 410 472 30,000  Level Boston Center
12:53PM 41.0206 -72.6711 215° Southwest 405 466 30,000  Level Boston Center
12:54PM 40.9181 -72.7669 215° Southwest 405 466 30,000  Level Boston Center
12:55PM 40.8344 -72.8461 216° Southwest 405 466 30,000  Level Boston Center
12:56PM 40.7406 -72.9303 214° Southwest 405 466 30,000  Level Boston Center
12:57PM 40.6464 -73.0089 212° Southwest 405 466 30,000  Level Boston Center
12:58PM 40.5522 -73.0956 215° Southwest 411 473 30,000  Level Boston Center
12:59PM 40.4578 -73.1819 215° Southwest 411 473 30,000  Level Boston Center
01:00PM 40.3675 -73.2681 216° Southwest 411 473 30,000  Level Boston Center
01:01PM 40.2900 -73.3350 213° Southwest 411 473 30,000  Level Boston Center
01:02PM 40.1703 -73.4531 217° Southwest 411 473 30,000  Level Boston Center
01:02PM 40.0994 -73.5086 211° Southwest 413 475 30,000  Level Washington Center
01:03PM 40.0050 -73.5925 214° Southwest 413 475 30,000 -840 Level Washington Center
01:04PM 39.9086 -73.6792 215° Southwest 419 482 28,400 -1,860 Descending Washington Center
01:05PM 39.8181 -73.7572 214° Southwest 414 476 26,400 -2,040 Descending Washington Center
01:06PM 39.7339 -73.8378 216° Southwest 401 461 24,400 -1,200 Descending Washington Center
01:07PM 39.6475 -73.9153 215° Southwest 390 449 24,000 -240 Descending Washington Center
01:08PM 39.5611 -73.9900 214° Southwest 390 449 24,000  Level Washington Center
01:09PM 39.4683 -74.0672 213° Southwest 390 449 24,000  Level Washington Center
01:10PM 39.3917 -74.1064 202° Southwest 385 443 24,000 -300 Level Washington Center
01:11PM 39.2839 -74.1622 202° Southwest 379 436 23,400 -1,200 Descending Washington Center
01:12PM 39.2078 -74.2469 221° Southwest 374 430 21,700 -1,680 Descending Washington Center
01:13PM 39.1317 -74.3286 220° Southwest 369 425 20,100 -1,620 Descending Washington Center
01:14PM 39.0575 -74.4100 220° Southwest 359 413 18,600 -1,620 Descending Washington Center
01:15PM 38.9853 -74.4861 219° Southwest 348 400 17,000 -1,380 Descending Washington Center
01:16PM 38.9297 -74.5775 232° Southwest 337 388 15,900 -600 Descending Washington Center
01:17PM 38.9097 -74.6872 257° West 318 366 15,900  Level Washington Center
01:18PM 38.8878 -74.8022 256° West 323 372 15,900  Level Washington Center
01:19PM 38.8675 -74.9117 257° West 323 372 15,900  Level Washington Center
01:20PM 38.8472 -75.0292 258° West 323 372 15,900  Level Washington Center
01:21PM 38.8247 -75.1333 255° West 317 365 16,000  Climbing Washington Center
01:22PM 38.8064 -75.2481 258° West 317 365 16,000 -300 Level Washington Center
01:23PM 38.8006 -75.3625 266° West 323 372 15,400 -900 Descending Washington Center
01:24PM 38.7944 -75.4744 266° West 323 372 14,300 -1,140 Descending Washington Center
01:25PM 38.7861 -75.5864 265° West 328 377 13,200 -1,140 Descending Washington Center
01:26PM 38.7819 -75.6981 267° West 328 377 12,100 -1,080 Descending Washington Center
01:27PM 38.7733 -75.8047 264° West 316 364 11,100 -600 Descending Washington Center
01:28PM 38.7650 -75.9086 264° West 306 352 11,000 -60 Descending Washington Center
01:29PM 38.7583 -76.0150 265° West 306 352 11,000  Level Washington Center
01:30PM 38.7600 -76.1214 271° West 306 352 11,000  Level Washington Center
01:31PM 38.7678 -76.2439 275° West 311 358 11,000 -360 Level Washington Center
01:32PM 38.7775 -76.3453 277° West 311 358 10,300 -600 Descending Washington Center
01:33PM 38.7833 -76.4333 275° West 269 310 9,900 -240 Descending Potomac TRACON
01:34PM 38.8000 -76.5333 282° West 269 310 9,900  Level Potomac TRACON
01:35PM 38.8000 -76.6167 270° West 266 306 10,000  Climbing Potomac TRACON
01:36PM 38.8000 -76.7167 270° West 266 306 10,000  Level Potomac TRACON
01:37PM 38.8167 -76.8000 284° West 275 316 10,000  Level Potomac TRACON
01:38PM 38.8667 -76.8833 308° West 276 318 10,000 -540 Level Potomac TRACON
01:39PM 38.9167 -76.9500 314° West 285 328 9,000 -1,260 Descending Potomac TRACON
01:40PM 38.9667 -77.0167 314° West 273 314 7,500 -1,380 Descending Potomac TRACON
01:41PM 39.0167 -77.0833 314° West 233 268 6,300 -1,260 Descending Potomac TRACON
01:42PM 39.0333 -77.1500 288° West 187 215 5,000 -1,560 Descending Potomac TRACON
01:43PM 39.0000 -77.2000 229° Southwest 194 223 3,200 -1,440 Descending Potomac TRACON
01:44PM 38.9667 -77.1667 142° Southeast 201 231 2,200 -900 Descending Potomac TRACON
01:45PM 38.9333 -77.1167 131° Southeast 175 201 1,500 -720 Descending Potomac TRACON